Terminal Aerodrome Forecast
Issued by NWS Jackson, MS

Home | Current Version | Previous Version | Text Only | Print | Product List | Glossary On
Versions: 1 2 3 4 5 6 7 8 9 10 11 12 13 14
370
FTUS44 KJAN 241744
TAFHBG
TAF
KHBG 241744Z 2418/2518 32005KT P6SM BKN030
     FM241900 04003KT P6SM VCTS SCT025 BKN040CB
     FM250100 00000KT P6SM SCT100
     FM251600 30005KT P6SM VCTS SCT020 BKN040CB=

USA.gov is the U.S. government's official web portal to all federal, state and local government web resources and services.